Time;durP1;ratioP1;P1;durP2;ratioP2;P2;SDS_P1;SDS_P2;PMS_P1;PMS_P2;Temp;Humidity;BMP_temperature;BMP_pressure;BME280_temperature;BME280_humidity;BME280_pressure;Samples;Min_cycle;Max_cycle;Signal;HPM_P1;HPM_P2
2023/03/04 00:00:32;;;;;;;;;;;;;;;-1.27;67.99;97165.63;108974;1250;99045;-73
2023/03/04 00:03:20;;;;;;;;;;;;;;;-1.29;67.92;97156.26;108995;1250;96867;-75
2023/03/04 00:05:48;;;;;;;;;;;;;;;-1.29;67.95;97160.16;109005;1250;97286;-73
2023/03/04 00:08:16;;;;;;;;;;;;;;;-1.29;67.94;97159.93;108746;1251;104826;-73
2023/03/04 00:10:44;;;;;;;;;;;;;;;-1.31;67.89;97155.53;108687;1251;101419;-73
2023/03/04 00:13:12;;;;;;;;;;;;;;;-1.33;67.87;97148.90;108690;1250;100335;-74
2023/03/04 00:15:40;;;;;;;;;;;;;;;-1.36;67.97;97145.76;108981;1250;96956;-74
2023/03/04 00:18:08;;;;;;;;;;;;;;;-1.37;67.97;97144.27;108765;1249;97295;-73
2023/03/04 00:20:36;;;;;;;;;;;;;;;-1.38;67.94;97139.42;109035;1250;104782;-74
2023/03/04 00:23:04;;;;;;;;;;;;;;;-1.38;68.08;97134.52;109006;1249;101502;-72
2023/03/04 00:25:32;;;;;;;;;;;;;;;-1.39;67.98;97135.48;108982;1249;99894;-77
2023/03/04 00:28:00;;;;;;;;;;;;;;;-1.40;67.94;97138.37;108702;1251;97306;-73
2023/03/04 00:30:28;;;;;;;;;;;;;;;-1.40;67.99;97137.84;109002;1250;97125;-73
2023/03/04 00:32:56;;;;;;;;;;;;;;;-1.41;67.89;97135.83;109019;1250;104837;-72
2023/03/04 00:35:24;;;;;;;;;;;;;;;-1.43;67.82;97131.13;109084;1250;101247;-74
2023/03/04 00:37:52;;;;;;;;;;;;;;;-1.43;67.96;97134.08;109000;1250;99586;-74
2023/03/04 00:40:20;;;;;;;;;;;;;;;-1.42;68.16;97131.58;109022;1250;97338;-74
2023/03/04 00:42:48;;;;;;;;;;;;;;;-1.44;68.09;97130.42;109004;1249;97025;-73
2023/03/04 00:45:16;;;;;;;;;;;;;;;-1.45;68.22;97129.20;109009;1250;105086;-75
2023/03/04 00:47:44;;;;;;;;;;;;;;;-1.46;68.15;97128.05;109038;1250;101527;-77
2023/03/04 00:50:12;;;;;;;;;;;;;;;-1.52;68.12;97125.05;109003;1250;100254;-74
2023/03/04 00:52:40;;;;;;;;;;;;;;;-1.63;68.07;97126.99;108833;1249;96959;-74
2023/03/04 00:55:09;;;;;;;;;;;;;;;-1.73;68.11;97124.59;109048;1249;96960;-75
2023/03/04 00:57:37;;;;;;;;;;;;;;;-1.82;68.22;97122.33;108689;1250;104601;-73
2023/03/04 01:00:05;;;;;;;;;;;;;;;-1.84;68.45;97116.21;109025;1249;101568;-73
2023/03/04 01:02:33;;;;;;;;;;;;;;;-1.86;68.48;97114.31;108996;1250;99667;-73
2023/03/04 01:05:01;;;;;;;;;;;;;;;-1.90;68.43;97106.65;109001;1250;96976;-73
2023/03/04 01:07:29;;;;;;;;;;;;;;;-1.93;68.42;97103.46;109072;1250;96920;-73
2023/03/04 01:09:57;;;;;;;;;;;;;;;-2.00;68.38;97098.84;108657;1251;104638;-73
2023/03/04 01:12:25;;;;;;;;;;;;;;;-2.09;68.40;97094.06;108964;1250;101191;-73
2023/03/04 01:14:53;;;;;;;;;;;;;;;-2.13;68.56;97094.42;109034;1249;99839;-73
2023/03/04 01:17:21;;;;;;;;;;;;;;;-2.15;68.64;97091.37;108989;1249;96992;-73
2023/03/04 01:19:49;;;;;;;;;;;;;;;-2.14;68.79;97090.45;108640;1251;97036;-73
2023/03/04 01:22:17;;;;;;;;;;;;;;;-2.15;68.85;97091.22;108753;1249;105675;-73
2023/03/04 01:24:46;;;;;;;;;;;;;;;-2.15;68.82;97090.72;108997;1249;101065;-76
2023/03/04 01:27:14;;;;;;;;;;;;;;;-2.17;68.89;97088.74;108987;1249;99983;-76
2023/03/04 01:29:42;;;;;;;;;;;;;;;-2.18;68.97;97087.27;108655;1249;97097;-73
2023/03/04 01:32:10;;;;;;;;;;;;;;;-2.18;68.93;97080.45;108708;1251;97030;-72
2023/03/04 01:34:38;;;;;;;;;;;;;;;-2.21;68.91;97074.69;108746;1251;105293;-73
2023/03/04 01:37:06;;;;;;;;;;;;;;;-2.27;68.83;97070.81;108641;1250;100513;-78
2023/03/04 01:39:34;;;;;;;;;;;;;;;-2.32;68.96;97065.54;108999;1250;99872;-73
2023/03/04 01:42:02;;;;;;;;;;;;;;;-2.33;69.07;97064.37;108998;1249;96962;-73
2023/03/04 01:44:30;;;;;;;;;;;;;;;-2.34;69.18;97055.96;109012;1250;97040;-76
2023/03/04 01:46:58;;;;;;;;;;;;;;;-2.37;69.21;97051.14;109041;1249;105110;-74
2023/03/04 01:49:26;;;;;;;;;;;;;;;-2.39;69.27;97044.45;109030;1250;101094;-73
2023/03/04 01:51:54;;;;;;;;;;;;;;;-2.42;69.27;97045.64;108990;1250;99443;-76
2023/03/04 01:54:23;;;;;;;;;;;;;;;-2.43;69.39;97047.13;108992;1249;96892;-73
2023/03/04 01:56:52;;;;;;;;;;;;;;;-2.42;69.50;97040.39;109012;1249;97882;-73
2023/03/04 01:59:20;;;;;;;;;;;;;;;-2.42;69.44;97034.91;109050;1249;104696;-75
2023/03/04 02:01:50;;;;;;;;;;;;;;;-2.42;69.48;97034.73;108964;1250;101297;-73
2023/03/04 02:04:19;;;;;;;;;;;;;;;-2.43;69.51;97033.54;108997;1250;99499;-73
2023/03/04 02:06:50;;;;;;;;;;;;;;;-2.45;69.66;97031.45;108728;1250;96977;-74
2023/03/04 02:09:19;;;;;;;;;;;;;;;-2.47;69.78;97028.13;109020;1250;96966;-73
2023/03/04 02:11:48;;;;;;;;;;;;;;;-2.50;69.86;97023.92;108988;1250;105101;-73
2023/03/04 02:14:16;;;;;;;;;;;;;;;-2.50;69.90;97020.95;109006;1250;100990;-74
2023/03/04 02:16:45;;;;;;;;;;;;;;;-2.49;69.99;97015.64;108973;1250;99971;-75
2023/03/04 02:19:31;;;;;;;;;;;;;;;-2.49;70.04;97017.36;108837;1250;97183;-73
2023/03/04 02:21:59;;;;;;;;;;;;;;;-2.49;70.03;97010.89;108939;1249;97107;-73
2023/03/04 02:24:31;;;;;;;;;;;;;;;-2.51;69.99;97012.97;108951;1250;105049;-73
2023/03/04 02:26:59;;;;;;;;;;;;;;;-2.56;70.04;97008.81;108886;1251;101372;-76
2023/03/04 02:29:28;;;;;;;;;;;;;;;-2.61;70.13;97010.98;108840;1251;99878;-76
2023/03/04 02:31:56;;;;;;;;;;;;;;;-2.63;70.29;97004.15;108874;1251;97222;-74
2023/03/04 02:34:32;;;;;;;;;;;;;;;-2.64;70.36;96997.53;108989;1250;97038;-72
2023/03/04 02:37:00;;;;;;;;;;;;;;;-2.60;70.36;96998.45;108991;1249;113354;-73
2023/03/04 02:39:33;;;;;;;;;;;;;;;-2.58;70.33;96994.34;108670;1250;100905;-75
2023/03/04 02:42:01;;;;;;;;;;;;;;;-2.57;70.43;96986.37;108963;1250;100207;-74
2023/03/04 02:44:31;;;;;;;;;;;;;;;-2.57;70.28;96982.44;108969;1249;96943;-73
2023/03/04 02:46:59;;;;;;;;;;;;;;;-2.56;70.31;96980.64;109008;1250;97032;-73
2023/03/04 02:49:28;;;;;;;;;;;;;;;-2.57;70.25;96983.33;108980;1249;105050;-75
2023/03/04 02:52:02;;;;;;;;;;;;;;;-2.57;70.39;96977.57;108705;1249;101562;-75
2023/03/04 02:54:30;;;;;;;;;;;;;;;-2.61;70.43;96977.38;108985;1249;100498;-73
2023/03/04 02:56:59;;;;;;;;;;;;;;;-2.64;70.52;96975.34;108943;1250;97151;-73
2023/03/04 02:59:27;;;;;;;;;;;;;;;-2.68;70.59;96969.38;108981;1249;97040;-74
2023/03/04 03:01:56;;;;;;;;;;;;;;;-2.72;70.71;96970.65;109005;1250;104735;-74
2023/03/04 03:04:24;;;;;;;;;;;;;;;-2.73;70.74;96969.52;109032;1250;101417;-77
2023/03/04 03:06:52;;;;;;;;;;;;;;;-2.73;70.77;96967.06;108967;1250;100169;-74
2023/03/04 03:09:20;;;;;;;;;;;;;;;-2.74;70.82;96974.31;108966;1249;96851;-77
2023/03/04 03:11:48;;;;;;;;;;;;;;;-2.72;71.00;96971.68;109029;1249;97018;-75
2023/03/04 03:14:16;;;;;;;;;;;;;;;-2.70;70.96;96968.68;108969;1249;104836;-74
2023/03/04 03:16:44;;;;;;;;;;;;;;;-2.69;70.82;96968.94;108974;1250;109816;-79
2023/03/04 03:19:12;;;;;;;;;;;;;;;-2.68;70.69;96962.92;108971;1250;100144;-73
2023/03/04 03:21:40;;;;;;;;;;;;;;;-2.68;70.79;96961.68;108962;1249;97167;-74
2023/03/04 03:24:08;;;;;;;;;;;;;;;-2.67;70.85;96959.13;109015;1249;96984;-76
2023/03/04 03:26:38;;;;;;;;;;;;;;;-2.66;70.74;96955.27;108845;1249;104141;-73
2023/03/04 03:29:06;;;;;;;;;;;;;;;-2.66;70.83;96949.45;108982;1250;101313;-78
2023/03/04 03:31:34;;;;;;;;;;;;;;;-2.67;70.69;96945.91;108639;1250;99166;-75
2023/03/04 03:34:02;;;;;;;;;;;;;;;-2.66;70.69;96947.58;109080;1249;96866;-73
2023/03/04 03:36:30;;;;;;;;;;;;;;;-2.69;70.67;96945.88;108962;1251;97033;-75
2023/03/04 03:38:58;;;;;;;;;;;;;;;-2.75;70.64;96943.09;108686;1251;104108;-73
2023/03/04 03:41:26;;;;;;;;;;;;;;;-2.79;70.73;96940.80;108988;1249;101259;-73
2023/03/04 03:43:54;;;;;;;;;;;;;;;-2.80;70.57;96938.66;108973;1250;98926;-78
2023/03/04 03:46:22;;;;;;;;;;;;;;;-2.82;70.58;96935.35;108967;1251;96857;-77
2023/03/04 03:48:50;;;;;;;;;;;;;;;-2.88;70.46;96932.73;109001;1250;97357;-73
2023/03/04 03:51:18;;;;;;;;;;;;;;;-2.95;70.57;96931.73;109065;1249;105090;-73
2023/03/04 03:53:46;;;;;;;;;;;;;;;-3.01;70.64;96926.67;109079;1250;101521;-74
2023/03/04 03:56:14;;;;;;;;;;;;;;;-3.04;70.59;96919.02;109000;1249;100381;-73
2023/03/04 03:58:42;;;;;;;;;;;;;;;-3.05;70.55;96922.32;108701;1249;96950;-76
2023/03/04 04:01:10;;;;;;;;;;;;;;;-3.07;70.66;96920.67;108984;1250;97006;-73
2023/03/04 04:03:38;;;;;;;;;;;;;;;-3.07;70.87;96918.08;109093;1251;105258;-73
2023/03/04 04:06:06;;;;;;;;;;;;;;;-3.10;70.79;96919.39;108966;1250;101616;-76
2023/03/04 04:08:34;;;;;;;;;;;;;;;-3.14;70.72;96916.29;108700;1249;100268;-73
2023/03/04 04:11:02;;;;;;;;;;;;;;;-3.20;70.79;96919.11;109008;1250;97298;-72
2023/03/04 04:13:30;;;;;;;;;;;;;;;-3.23;70.89;96919.02;109001;1250;96994;-73
2023/03/04 04:15:58;;;;;;;;;;;;;;;-3.25;70.99;96917.04;109000;1249;104939;-76
2023/03/04 04:18:26;;;;;;;;;;;;;;;-3.27;70.85;96913.52;109018;1250;101100;-73
2023/03/04 04:20:54;;;;;;;;;;;;;;;-3.29;70.93;96915.42;108980;1250;99928;-74
2023/03/04 04:23:23;;;;;;;;;;;;;;;-3.28;70.89;96914.89;108998;1250;96864;-73
2023/03/04 04:25:51;;;;;;;;;;;;;;;-3.28;70.70;96915.17;109024;1250;96954;-75
2023/03/04 04:28:19;;;;;;;;;;;;;;;-3.28;70.76;96912.92;109027;1249;104545;-73
2023/03/04 04:30:46;;;;;;;;;;;;;;;-3.29;70.90;96916.84;109014;1251;101430;-76
2023/03/04 04:33:14;;;;;;;;;;;;;;;-3.33;70.80;96914.90;108974;1250;100071;-73
2023/03/04 04:35:43;;;;;;;;;;;;;;;-3.36;70.80;96914.86;109010;1249;96890;-75
2023/03/04 04:38:11;;;;;;;;;;;;;;;-3.36;70.79;96912.41;109004;1253;96961;-78
2023/03/04 04:40:39;;;;;;;;;;;;;;;-3.38;70.65;96914.14;109009;1251;104976;-75
2023/03/04 04:43:07;;;;;;;;;;;;;;;-3.43;70.55;96919.92;108755;1251;101267;-76
2023/03/04 04:45:35;;;;;;;;;;;;;;;-3.47;70.66;96919.88;108968;1249;100033;-77
2023/03/04 04:48:03;;;;;;;;;;;;;;;-3.49;70.69;96914.08;108979;1251;97169;-72
2023/03/04 04:50:31;;;;;;;;;;;;;;;-3.53;70.49;96912.72;108654;1249;97035;-76
2023/03/04 04:52:59;;;;;;;;;;;;;;;-3.53;70.55;96913.45;109057;1249;104687;-73
2023/03/04 04:55:27;;;;;;;;;;;;;;;-3.54;70.45;96911.73;109031;1251;101044;-73
2023/03/04 04:57:55;;;;;;;;;;;;;;;-3.56;70.43;96908.20;108527;1250;100841;-73
2023/03/04 05:00:23;;;;;;;;;;;;;;;-3.57;70.52;96911.15;108991;1251;96907;-73
2023/03/04 05:02:51;;;;;;;;;;;;;;;-3.61;70.44;96912.91;109018;1250;96916;-74
2023/03/04 05:05:19;;;;;;;;;;;;;;;-3.69;70.23;96908.20;109028;1251;105015;-74
2023/03/04 05:07:47;;;;;;;;;;;;;;;-3.77;70.35;96907.61;109037;1250;100544;-73
2023/03/04 05:10:15;;;;;;;;;;;;;;;-3.83;70.51;96901.84;109011;1249;100147;-73
2023/03/04 05:12:44;;;;;;;;;;;;;;;-3.88;70.64;96896.36;108852;1251;96915;-74
2023/03/04 05:15:12;;;;;;;;;;;;;;;-3.89;70.80;96896.09;109017;1249;96940;-73
2023/03/04 05:17:40;;;;;;;;;;;;;;;-3.87;70.92;96890.48;109033;1249;104950;-76
2023/03/04 05:20:09;;;;;;;;;;;;;;;-3.86;70.91;96890.01;109041;1250;101362;-74
2023/03/04 05:22:37;;;;;;;;;;;;;;;-3.88;70.84;96890.50;108994;1249;100133;-74
2023/03/04 05:25:05;;;;;;;;;;;;;;;-3.90;70.92;96887.84;108858;1251;96932;-73
2023/03/04 05:27:33;;;;;;;;;;;;;;;-3.88;70.92;96888.63;108845;1249;97198;-74
2023/03/04 05:30:01;;;;;;;;;;;;;;;-3.87;70.87;96889.02;108931;1250;105291;-72
2023/03/04 05:32:29;;;;;;;;;;;;;;;-3.87;70.72;96887.11;109012;1250;109908;-76
2023/03/04 05:34:57;;;;;;;;;;;;;;;-3.88;70.58;96886.46;109000;1250;100067;-73
2023/03/04 05:37:25;;;;;;;;;;;;;;;-3.91;70.62;96887.97;108978;1250;96899;-77
2023/03/04 05:39:53;;;;;;;;;;;;;;;-3.93;70.68;96885.13;108990;1250;97883;-73
2023/03/04 05:42:21;;;;;;;;;;;;;;;-3.96;70.70;96887.40;108744;1251;104931;-76
2023/03/04 05:44:49;;;;;;;;;;;;;;;-3.99;70.66;96881.13;109015;1250;101545;-73
2023/03/04 05:47:17;;;;;;;;;;;;;;;-4.00;70.57;96881.90;109040;1250;100034;-73
2023/03/04 05:49:45;;;;;;;;;;;;;;;-4.01;70.72;96882.82;108954;1250;96910;-73
2023/03/04 05:52:13;;;;;;;;;;;;;;;-4.02;70.67;96879.59;109032;1250;96997;-73
2023/03/04 05:54:41;;;;;;;;;;;;;;;-4.02;70.70;96882.73;109060;1250;104448;-74
2023/03/04 05:57:09;;;;;;;;;;;;;;;-4.01;70.74;96881.45;109017;1250;101466;-73
2023/03/04 05:59:37;;;;;;;;;;;;;;;-4.00;70.71;96878.71;108972;1251;100035;-75
2023/03/04 06:02:05;;;;;;;;;;;;;;;-4.01;70.71;96881.45;108996;1250;96916;-75
2023/03/04 06:04:33;;;;;;;;;;;;;;;-4.02;70.72;96878.73;108667;1249;97060;-73
2023/03/04 06:07:01;;;;;;;;;;;;;;;-3.99;70.79;96875.65;109042;1250;104841;-74
2023/03/04 06:09:29;;;;;;;;;;;;;;;-3.97;70.81;96876.73;108996;1250;101616;-75
2023/03/04 06:11:57;;;;;;;;;;;;;;;-3.96;70.85;96878.56;108942;1250;100186;-73
2023/03/04 06:14:25;;;;;;;;;;;;;;;-3.91;70.89;96875.73;108651;1251;97904;-75
2023/03/04 06:17:18;;;;;;;;;;;;;;;-3.86;70.91;96877.84;108686;1251;97126;-74
2023/03/04 06:19:46;;;;;;;;;;;;;;;-3.84;70.95;96875.92;108896;1252;105143;-75
2023/03/04 06:22:14;;;;;;;;;;;;;;;-3.83;70.95;96876.33;108617;1251;101530;-73
2023/03/04 06:24:42;;;;;;;;;;;;;;;-3.80;70.97;96877.65;108582;1251;100126;-73
2023/03/04 06:27:10;;;;;;;;;;;;;;;-3.77;71.03;96874.96;108567;1251;97315;-74
2023/03/04 06:29:38;;;;;;;;;;;;;;;-3.75;71.17;96876.69;108636;1251;96968;-74
2023/03/04 06:32:06;;;;;;;;;;;;;;;-3.72;71.26;96874.95;108885;1251;104667;-74
2023/03/04 06:34:35;;;;;;;;;;;;;;;-3.67;71.28;96873.87;108869;1250;101610;-73
2023/03/04 06:37:03;;;;;;;;;;;;;;;-3.62;71.23;96876.05;108877;1251;98984;-78
2023/03/04 06:39:31;;;;;;;;;;;;;;;-3.56;71.33;96874.49;108892;1251;97277;-74
2023/03/04 06:41:59;;;;;;;;;;;;;;;-3.52;71.34;96869.20;108871;1251;97024;-76
2023/03/04 06:44:27;;;;;;;;;;;;;;;-3.48;71.34;96869.16;108877;1251;105045;-75
2023/03/04 06:46:55;;;;;;;;;;;;;;;-3.42;71.46;96868.65;108903;1250;101354;-73
2023/03/04 06:49:23;;;;;;;;;;;;;;;-3.35;71.47;96869.92;108683;1251;100119;-76
2023/03/04 06:51:51;;;;;;;;;;;;;;;-3.31;71.50;96869.34;108837;1251;96882;-73
2023/03/04 06:54:19;;;;;;;;;;;;;;;-3.27;71.41;96866.67;108715;1251;97794;-74
2023/03/04 06:56:47;;;;;;;;;;;;;;;-3.23;71.42;96859.72;108875;1251;104866;-78
2023/03/04 06:59:16;;;;;;;;;;;;;;;-3.20;71.38;96859.09;108629;1251;100096;-73
2023/03/04 07:01:44;;;;;;;;;;;;;;;-3.15;71.29;96850.86;108622;1253;99025;-74
2023/03/04 07:04:13;;;;;;;;;;;;;;;-3.06;71.34;96849.80;108692;1252;97165;-73
2023/03/04 07:06:41;;;;;;;;;;;;;;;-2.98;71.42;96845.20;108782;1253;96893;-73
2023/03/04 07:09:09;;;;;;;;;;;;;;;-2.91;71.45;96842.30;108803;1250;104061;-77
2023/03/04 07:11:37;;;;;;;;;;;;;;;-2.82;71.43;96839.73;108798;1252;99970;-74
2023/03/04 07:14:05;;;;;;;;;;;;;;;-2.74;71.37;96828.59;108772;1253;99608;-75
2023/03/04 07:16:33;;;;;;;;;;;;;;;-2.65;71.35;96830.64;108879;1251;96947;-77
2023/03/04 07:19:01;;;;;;;;;;;;;;;-2.56;71.38;96836.54;108983;1250;97053;-73
2023/03/04 07:21:30;;;;;;;;;;;;;;;-2.47;71.34;96830.98;108614;1251;105364;-73
2023/03/04 07:23:58;;;;;;;;;;;;;;;-2.38;71.17;96826.94;108970;1250;100022;-73
2023/03/04 07:26:26;;;;;;;;;;;;;;;-2.28;71.30;96823.33;109003;1251;100355;-73
2023/03/04 07:28:56;;;;;;;;;;;;;;;-2.16;71.20;96825.27;108928;1251;96948;-75
2023/03/04 07:31:27;;;;;;;;;;;;;;;-2.00;70.91;96829.92;109002;1250;97011;-76
2023/03/04 07:33:56;;;;;;;;;;;;;;;-1.83;70.74;96826.86;109023;1250;105395;-73
2023/03/04 07:36:24;;;;;;;;;;;;;;;-1.64;70.40;96831.58;108987;1250;101628;-73
2023/03/04 07:38:53;;;;;;;;;;;;;;;-1.48;70.26;96829.13;108904;1251;100185;-76
2023/03/04 07:41:22;;;;;;;;;;;;;;;-1.30;70.21;96827.33;108882;1250;96890;-76
2023/03/04 07:43:50;;;;;;;;;;;;;;;-1.10;70.21;96826.22;108999;1251;97286;-73
2023/03/04 07:46:19;;;;;;;;;;;;;;;-0.89;70.31;96825.45;109023;1251;104709;-73
2023/03/04 07:48:47;;;;;;;;;;;;;;;-0.70;70.05;96822.58;108721;1249;100560;-73
2023/03/04 07:51:22;;;;;;;;;;;;;;;-0.54;69.44;96811.58;108672;1251;99696;-73
2023/03/04 07:53:52;;;;;;;;;;;;;;;-0.35;69.15;96812.34;108560;1251;96974;-73
2023/03/04 07:56:22;;;;;;;;;;;;;;;-0.16;68.89;96809.42;108970;1251;97062;-74
2023/03/04 07:58:52;;;;;;;;;;;;;;;0.06;68.66;96807.12;108809;1250;210149;-73
2023/03/04 08:01:22;;;;;;;;;;;;;;;0.31;68.39;96799.72;108855;1251;101460;-73
2023/03/04 08:03:50;;;;;;;;;;;;;;;0.63;68.20;96794.51;108903;1251;99959;-73
2023/03/04 08:06:19;;;;;;;;;;;;;;;0.95;67.39;96792.79;108888;1251;97168;-73
2023/03/04 08:08:48;;;;;;;;;;;;;;;1.26;66.88;96796.27;108923;1251;97319;-76
2023/03/04 08:11:19;;;;;;;;;;;;;;;1.66;66.66;96792.35;108936;1251;104991;-73
2023/03/04 08:13:48;;;;;;;;;;;;;;;2.09;66.10;96786.47;108982;1251;100210;-73
2023/03/04 08:16:17;;;;;;;;;;;;;;;2.52;65.61;96783.11;108808;1251;100498;-74
2023/03/04 08:18:46;;;;;;;;;;;;;;;2.95;65.02;96782.86;108897;1251;96902;-73
2023/03/04 08:21:17;;;;;;;;;;;;;;;3.40;64.50;96780.36;108921;1251;97092;-76
2023/03/04 08:23:45;;;;;;;;;;;;;;;3.81;63.91;96783.98;108910;1251;104963;-74
2023/03/04 08:26:15;;;;;;;;;;;;;;;4.17;63.49;96782.13;108959;1251;100275;-74
2023/03/04 08:28:44;;;;;;;;;;;;;;;4.52;62.89;96777.95;108959;1251;99994;-73
2023/03/04 08:31:13;;;;;;;;;;;;;;;4.79;62.50;96775.18;108980;1249;97178;-73
2023/03/04 08:33:41;;;;;;;;;;;;;;;5.01;62.27;96772.19;108990;1250;97100;-73
2023/03/04 08:36:10;;;;;;;;;;;;;;;5.24;61.93;96774.45;109005;1251;104938;-74
2023/03/04 08:38:38;;;;;;;;;;;;;;;5.30;61.32;96776.84;108913;1251;101611;-73
2023/03/04 08:41:06;;;;;;;;;;;;;;;5.39;60.77;96773.45;108985;1249;100123;-75
2023/03/04 08:43:35;;;;;;;;;;;;;;;5.61;60.52;96771.14;108978;1251;97305;-74
2023/03/04 08:46:03;;;;;;;;;;;;;;;5.87;59.62;96776.20;109071;1250;96949;-73
2023/03/04 08:48:31;;;;;;;;;;;;;;;6.05;59.29;96776.73;108714;1251;104715;-73
2023/03/04 08:50:59;;;;;;;;;;;;;;;6.25;58.96;96773.11;109021;1251;101514;-73
2023/03/04 08:53:27;;;;;;;;;;;;;;;6.42;58.67;96776.39;109041;1251;99042;-73
2023/03/04 08:55:55;;;;;;;;;;;;;;;6.61;58.42;96769.36;108962;1250;96923;-73
2023/03/04 08:58:23;;;;;;;;;;;;;;;6.79;58.15;96759.88;109014;1251;97237;-73
2023/03/04 09:00:51;;;;;;;;;;;;;;;7.00;57.70;96763.05;108827;1251;103593;-74
2023/03/04 09:03:20;;;;;;;;;;;;;;;7.20;57.48;96764.47;108982;1251;101307;-73
2023/03/04 09:05:48;;;;;;;;;;;;;;;7.36;57.13;96762.58;108980;1251;100031;-73
2023/03/04 09:08:16;;;;;;;;;;;;;;;7.40;56.70;96768.48;108910;1251;96899;-74
2023/03/04 09:10:45;;;;;;;;;;;;;;;7.56;56.64;96771.23;108992;1250;96909;-73
2023/03/04 09:13:15;;;;;;;;;;;;;;;7.76;56.23;96771.97;108944;1251;104970;-73
2023/03/04 09:15:46;;;;;;;;;;;;;;;7.84;55.20;96766.79;108976;1249;101240;-73
2023/03/04 09:18:15;;;;;;;;;;;;;;;7.73;55.24;96763.58;108924;1251;100208;-73
2023/03/04 09:20:43;;;;;;;;;;;;;;;7.92;55.46;96767.39;108981;1251;96908;-73
2023/03/04 09:23:12;;;;;;;;;;;;;;;8.19;55.37;96769.30;108952;1251;96996;-73
2023/03/04 09:25:40;;;;;;;;;;;;;;;8.31;54.42;96773.26;108952;1250;104507;-73
2023/03/04 09:28:08;;;;;;;;;;;;;;;8.28;54.43;96773.55;109023;1251;101273;-73
2023/03/04 09:30:36;;;;;;;;;;;;;;;8.33;54.55;96787.27;108938;1251;108225;-73
2023/03/04 09:33:04;;;;;;;;;;;;;;;8.20;53.26;96791.55;108971;1251;97263;-73
2023/03/04 09:35:32;;;;;;;;;;;;;;;7.60;52.56;96796.48;108933;1251;97065;-73
2023/03/04 09:38:00;;;;;;;;;;;;;;;6.90;52.37;96800.23;109000;1251;103830;-75
2023/03/04 09:40:30;;;;;;;;;;;;;;;6.18;52.49;96815.08;108997;1251;101480;-73
2023/03/04 09:43:03;;;;;;;;;;;;;;;5.66;53.27;96825.80;108836;1251;108126;-73
2023/03/04 09:45:37;;;;;;;;;;;;;;;5.22;53.58;96835.43;108925;1251;97308;-73
2023/03/04 09:48:06;;;;;;;;;;;;;;;4.77;54.27;96838.85;108751;1251;97478;-73
2023/03/04 09:50:36;;;;;;;;;;;;;;;4.56;54.86;96845.14;108989;1251;105122;-72
2023/03/04 09:53:07;;;;;;;;;;;;;;;4.64;55.58;96847.78;108934;1254;100526;-74
2023/03/04 09:55:40;;;;;;;;;;;;;;;4.91;55.41;96843.94;108955;1251;99877;-73
2023/03/04 09:58:26;;;;;;;;;;;;;;;4.87;55.37;96843.48;108651;1249;97262;-73
2023/03/04 10:01:00;;;;;;;;;;;;;;;4.78;55.37;96850.49;109067;1251;96972;-73
2023/03/04 10:03:41;;;;;;;;;;;;;;;4.56;55.21;96857.77;109021;1251;104875;-73
2023/03/04 10:06:16;;;;;;;;;;;;;;;4.39;55.69;96859.27;109012;1253;101557;-74
2023/03/04 10:08:50;;;;;;;;;;;;;;;4.49;56.25;96863.88;108977;1251;99669;-73
2023/03/04 10:11:28;;;;;;;;;;;;;;;4.90;56.54;96864.20;108954;1251;96872;-73
2023/03/04 10:13:56;;;;;;;;;;;;;;;5.30;56.07;96860.94;109011;1251;96918;-75
2023/03/04 10:16:27;;;;;;;;;;;;;;;5.48;55.84;96860.87;109020;1251;103909;-73
2023/03/04 10:18:58;;;;;;;;;;;;;;;5.44;55.70;96861.33;109054;1250;101528;-74
2023/03/04 10:21:36;;;;;;;;;;;;;;;5.50;55.47;96861.54;108969;1250;99994;-73
2023/03/04 10:24:16;;;;;;;;;;;;;;;5.33;54.65;96856.58;109014;1251;96941;-73
2023/03/04 10:26:46;;;;;;;;;;;;;;;5.07;55.16;96858.30;109077;1251;96915;-73
2023/03/04 10:29:18;;;;;;;;;;;;;;;4.94;55.88;96866.69;108995;1251;104898;-72
2023/03/04 10:31:47;;;;;;;;;;;;;;;5.01;56.04;96874.25;109012;1253;101305;-73
2023/03/04 10:34:16;;;;;;;;;;;;;;;5.11;56.24;96874.73;108957;1250;100479;-73
2023/03/04 10:36:53;;;;;;;;;;;;;;;5.10;55.91;96868.59;108945;1250;96981;-73
2023/03/04 10:39:30;;;;;;;;;;;;;;;5.13;55.35;96861.42;109024;1251;96993;-74
2023/03/04 10:42:02;;;;;;;;;;;;;;;5.17;55.25;96858.66;108985;1250;104094;-73
2023/03/04 10:44:30;;;;;;;;;;;;;;;5.14;54.93;96856.52;109023;1250;100948;-73
2023/03/04 10:46:58;;;;;;;;;;;;;;;5.02;54.66;96861.48;108995;1251;99510;-73
2023/03/04 10:49:28;;;;;;;;;;;;;;;4.66;54.30;96865.16;108932;1251;96835;-75
2023/03/04 10:52:04;;;;;;;;;;;;;;;4.71;55.33;96864.23;109010;1250;97121;-73
2023/03/04 10:54:40;;;;;;;;;;;;;;;5.10;55.15;96855.23;108817;1251;104027;-73
2023/03/04 10:57:16;;;;;;;;;;;;;;;4.96;54.72;96851.52;108910;1251;108948;-75
2023/03/04 10:59:50;;;;;;;;;;;;;;;4.98;54.90;96848.56;108853;1251;98028;-74
2023/03/04 11:02:48;;;;;;;;;;;;;;;5.24;54.94;96843.66;108831;1251;96904;-73
2023/03/04 11:05:18;;;;;;;;;;;;;;;5.46;54.09;96844.63;108328;1259;97071;-73
2023/03/04 11:07:53;;;;;;;;;;;;;;;5.40;53.41;96848.21;108313;1259;113569;-75
2023/03/04 11:10:23;;;;;;;;;;;;;;;5.61;54.00;96853.94;108342;1259;101312;-73
2023/03/04 11:13:02;;;;;;;;;;;;;;;6.11;53.59;96852.27;108295;1259;100170;-73
2023/03/04 11:15:32;;;;;;;;;;;;;;;6.09;51.71;96854.31;108127;1257;97069;-72
2023/03/04 11:18:06;;;;;;;;;;;;;;;5.85;52.42;96861.27;108333;1257;97155;-73
2023/03/04 11:20:36;;;;;;;;;;;;;;;5.67;52.16;96860.66;108300;1258;105087;-75
2023/03/04 11:23:06;;;;;;;;;;;;;;;5.57;52.41;96856.79;108260;1260;100481;-75
2023/03/04 11:25:40;;;;;;;;;;;;;;;5.50;52.61;96855.08;108276;1260;100032;-74
2023/03/04 11:28:29;;;;;;;;;;;;;;;5.45;52.66;96853.39;108331;1257;97308;-75
2023/03/04 11:31:23;;;;;;;;;;;;;;;5.09;52.39;96855.52;108340;1258;97044;-74
2023/03/04 11:33:54;;;;;;;;;;;;;;;4.79;52.91;96859.52;107999;1263;104048;-73
2023/03/04 11:36:41;;;;;;;;;;;;;;;4.51;52.85;96864.12;107972;1263;101406;-73
2023/03/04 11:39:17;;;;;;;;;;;;;;;4.18;53.28;96869.63;107876;1266;99144;-73
2023/03/04 11:41:52;;;;;;;;;;;;;;;4.03;53.64;96865.73;108014;1259;97457;-73
2023/03/04 11:44:20;;;;;;;;;;;;;;;3.89;53.87;96862.98;108256;1259;97042;-73
2023/03/04 11:47:06;;;;;;;;;;;;;;;3.90;54.15;96863.69;108144;1260;104144;-75
2023/03/04 11:49:34;;;;;;;;;;;;;;;4.04;54.43;96859.95;108283;1260;101223;-73
2023/03/04 11:52:11;;;;;;;;;;;;;;;4.10;54.51;96862.75;108237;1259;99416;-73
2023/03/04 11:54:57;;;;;;;;;;;;;;;4.10;54.67;96858.28;108227;1259;96946;-73
2023/03/04 11:57:40;;;;;;;;;;;;;;;4.07;54.74;96856.92;108327;1260;97051;-73
2023/03/04 12:00:11;;;;;;;;;;;;;;;3.99;54.50;96851.48;108251;1260;104829;-73
2023/03/04 12:02:57;;;;;;;;;;;;;;;3.75;54.73;96846.45;108282;1260;100501;-73
2023/03/04 12:05:29;;;;;;;;;;;;;;;3.53;54.97;96851.25;108087;1259;99899;-75
2023/03/04 12:07:57;;;;;;;;;;;;;;;3.40;55.24;96852.33;108188;1259;97083;-74
2023/03/04 12:10:49;;;;;;;;;;;;;;;3.31;55.25;96853.67;108405;1253;98024;-73
2023/03/04 12:13:20;;;;;;;;;;;;;;;3.36;55.65;96852.20;108854;1250;104697;-74
2023/03/04 12:15:51;;;;;;;;;;;;;;;3.53;55.76;96850.64;108872;1251;101432;-75
2023/03/04 12:18:19;;;;;;;;;;;;;;;3.70;55.66;96846.05;108946;1251;99890;-73
2023/03/04 12:20:47;;;;;;;;;;;;;;;3.80;55.43;96847.11;108914;1251;96852;-73
2023/03/04 12:23:33;;;;;;;;;;;;;;;3.71;55.47;96845.17;108912;1251;97097;-73
2023/03/04 12:26:17;;;;;;;;;;;;;;;3.61;55.41;96843.66;108685;1251;106014;-73
2023/03/04 12:29:08;;;;;;;;;;;;;;;3.47;55.56;96847.30;108909;1251;101333;-73
2023/03/04 12:31:36;;;;;;;;;;;;;;;3.45;55.64;96843.71;108199;1260;99874;-72
2023/03/04 12:34:07;;;;;;;;;;;;;;;3.44;55.75;96842.76;108075;1260;97041;-74
2023/03/04 12:36:41;;;;;;;;;;;;;;;3.44;55.72;96841.16;108116;1259;97004;-74
2023/03/04 12:39:12;;;;;;;;;;;;;;;3.40;55.52;96835.72;108258;1260;103470;-72
2023/03/04 12:41:46;;;;;;;;;;;;;;;3.28;55.57;96836.30;108310;1258;101476;-73
2023/03/04 12:44:18;;;;;;;;;;;;;;;3.18;55.83;96829.40;108249;1259;99922;-73
2023/03/04 12:46:56;;;;;;;;;;;;;;;3.14;56.12;96832.94;108170;1259;97033;-73
2023/03/04 12:49:38;;;;;;;;;;;;;;;3.07;55.99;96828.56;108267;1260;97980;-73